sensor_id;sensor_type;location;lat;lon;timestamp;temperature;humidity
65582;DHT22;52231;40.090;18.348;2024-03-17T00:02:23;10.90;89.60
65582;DHT22;52231;40.090;18.348;2024-03-17T00:04:50;10.90;89.60
65582;DHT22;52231;40.090;18.348;2024-03-17T00:07:18;11.00;89.70
65582;DHT22;52231;40.090;18.348;2024-03-17T00:09:45;10.90;89.60
65582;DHT22;52231;40.090;18.348;2024-03-17T00:12:13;10.80;89.70
65582;DHT22;52231;40.090;18.348;2024-03-17T00:14:41;10.90;89.80
65582;DHT22;52231;40.090;18.348;2024-03-17T00:17:28;10.80;89.70
65582;DHT22;52231;40.090;18.348;2024-03-17T00:19:56;10.90;89.80
65582;DHT22;52231;40.090;18.348;2024-03-17T00:22:23;10.70;89.80
65582;DHT22;52231;40.090;18.348;2024-03-17T00:24:51;10.90;89.90
65582;DHT22;52231;40.090;18.348;2024-03-17T00:27:18;10.80;90.00
65582;DHT22;52231;40.090;18.348;2024-03-17T00:29:46;10.80;90.00
65582;DHT22;52231;40.090;18.348;2024-03-17T00:32:32;10.80;90.10
65582;DHT22;52231;40.090;18.348;2024-03-17T00:34:59;10.80;90.10
65582;DHT22;52231;40.090;18.348;2024-03-17T00:37:26;10.80;90.10
65582;DHT22;52231;40.090;18.348;2024-03-17T00:40:12;10.70;90.10
65582;DHT22;52231;40.090;18.348;2024-03-17T00:42:40;10.70;90.10
65582;DHT22;52231;40.090;18.348;2024-03-17T00:45:08;10.80;90.30
65582;DHT22;52231;40.090;18.348;2024-03-17T00:47:37;10.80;90.30
65582;DHT22;52231;40.090;18.348;2024-03-17T00:50:05;10.70;90.30
65582;DHT22;52231;40.090;18.348;2024-03-17T00:52:35;10.80;90.40
65582;DHT22;52231;40.090;18.348;2024-03-17T00:55:03;10.80;90.40
65582;DHT22;52231;40.090;18.348;2024-03-17T00:57:30;10.80;90.40
65582;DHT22;52231;40.090;18.348;2024-03-17T00:59:57;10.80;90.40
65582;DHT22;52231;40.090;18.348;2024-03-17T01:02:25;10.80;90.50
65582;DHT22;52231;40.090;18.348;2024-03-17T01:04:52;10.80;90.50
65582;DHT22;52231;40.090;18.348;2024-03-17T01:07:19;10.90;90.50
65582;DHT22;52231;40.090;18.348;2024-03-17T01:09:49;10.80;90.50
65582;DHT22;52231;40.090;18.348;2024-03-17T01:12:16;11.00;90.60
65582;DHT22;52231;40.090;18.348;2024-03-17T01:14:44;10.90;90.60
65582;DHT22;52231;40.090;18.348;2024-03-17T01:17:11;10.90;90.50
65582;DHT22;52231;40.090;18.348;2024-03-17T01:19:38;10.90;90.50
65582;DHT22;52231;40.090;18.348;2024-03-17T01:22:05;11.00;90.50
65582;DHT22;52231;40.090;18.348;2024-03-17T01:24:32;11.10;90.60
65582;DHT22;52231;40.090;18.348;2024-03-17T01:27:00;11.00;90.50
65582;DHT22;52231;40.090;18.348;2024-03-17T01:29:28;11.10;90.50
65582;DHT22;52231;40.090;18.348;2024-03-17T01:31:55;11.00;90.50
65582;DHT22;52231;40.090;18.348;2024-03-17T01:34:22;11.00;90.50
65582;DHT22;52231;40.090;18.348;2024-03-17T01:36:50;11.10;90.50
65582;DHT22;52231;40.090;18.348;2024-03-17T01:39:17;11.00;90.40
65582;DHT22;52231;40.090;18.348;2024-03-17T01:41:45;11.10;90.60
65582;DHT22;52231;40.090;18.348;2024-03-17T01:44:23;11.00;90.50
65582;DHT22;52231;40.090;18.348;2024-03-17T01:46:51;10.90;90.50
65582;DHT22;52231;40.090;18.348;2024-03-17T01:49:18;10.90;90.50
65582;DHT22;52231;40.090;18.348;2024-03-17T01:51:47;11.00;90.50
65582;DHT22;52231;40.090;18.348;2024-03-17T01:54:15;10.90;90.50
65582;DHT22;52231;40.090;18.348;2024-03-17T01:56:44;11.00;90.50
65582;DHT22;52231;40.090;18.348;2024-03-17T01:59:11;11.00;90.50
65582;DHT22;52231;40.090;18.348;2024-03-17T02:01:39;11.00;90.50
65582;DHT22;52231;40.090;18.348;2024-03-17T02:04:08;11.00;90.50
65582;DHT22;52231;40.090;18.348;2024-03-17T02:06:35;11.00;90.50
65582;DHT22;52231;40.090;18.348;2024-03-17T02:09:02;11.10;90.50
65582;DHT22;52231;40.090;18.348;2024-03-17T02:11:48;10.90;90.50
65582;DHT22;52231;40.090;18.348;2024-03-17T02:14:16;11.10;90.50
65582;DHT22;52231;40.090;18.348;2024-03-17T02:16:44;11.00;90.50
65582;DHT22;52231;40.090;18.348;2024-03-17T02:19:11;11.00;90.50
65582;DHT22;52231;40.090;18.348;2024-03-17T02:21:38;11.00;90.50
65582;DHT22;52231;40.090;18.348;2024-03-17T02:24:08;10.90;90.40
65582;DHT22;52231;40.090;18.348;2024-03-17T02:26:35;11.00;90.40
65582;DHT22;52231;40.090;18.348;2024-03-17T02:29:02;10.90;90.40
65582;DHT22;52231;40.090;18.348;2024-03-17T02:31:29;10.90;90.40
65582;DHT22;52231;40.090;18.348;2024-03-17T02:34:15;10.90;90.40
65582;DHT22;52231;40.090;18.348;2024-03-17T02:36:42;11.00;90.40
65582;DHT22;52231;40.090;18.348;2024-03-17T02:39:10;11.10;90.40
65582;DHT22;52231;40.090;18.348;2024-03-17T02:41:55;10.90;90.30
65582;DHT22;52231;40.090;18.348;2024-03-17T02:44:22;10.90;90.30
65582;DHT22;52231;40.090;18.348;2024-03-17T02:46:49;11.00;90.30
65582;DHT22;52231;40.090;18.348;2024-03-17T02:49:16;10.90;90.20
65582;DHT22;52231;40.090;18.348;2024-03-17T02:51:45;11.10;90.30
65582;DHT22;52231;40.090;18.348;2024-03-17T02:54:12;11.00;90.30
65582;DHT22;52231;40.090;18.348;2024-03-17T02:56:39;11.10;90.20
65582;DHT22;52231;40.090;18.348;2024-03-17T02:59:06;11.10;90.20
65582;DHT22;52231;40.090;18.348;2024-03-17T03:01:33;11.10;90.20
65582;DHT22;52231;40.090;18.348;2024-03-17T03:04:01;11.10;90.20
65582;DHT22;52231;40.090;18.348;2024-03-17T03:06:28;11.10;90.10
65582;DHT22;52231;40.090;18.348;2024-03-17T03:08:55;11.10;90.10
65582;DHT22;52231;40.090;18.348;2024-03-17T03:11:23;11.10;90.10
65582;DHT22;52231;40.090;18.348;2024-03-17T03:13:50;11.00;90.00
65582;DHT22;52231;40.090;18.348;2024-03-17T03:16:18;11.10;90.10
65582;DHT22;52231;40.090;18.348;2024-03-17T03:18:45;11.10;90.10
65582;DHT22;52231;40.090;18.348;2024-03-17T03:21:12;11.10;90.10
65582;DHT22;52231;40.090;18.348;2024-03-17T03:23:40;11.10;90.10
65582;DHT22;52231;40.090;18.348;2024-03-17T03:26:07;11.00;90.00
65582;DHT22;52231;40.090;18.348;2024-03-17T03:28:36;11.20;90.10
65582;DHT22;52231;40.090;18.348;2024-03-17T03:31:04;11.10;90.10
65582;DHT22;52231;40.090;18.348;2024-03-17T03:33:31;11.10;90.10
65582;DHT22;52231;40.090;18.348;2024-03-17T03:35:58;11.00;90.00
65582;DHT22;52231;40.090;18.348;2024-03-17T03:38:26;11.00;90.10
65582;DHT22;52231;40.090;18.348;2024-03-17T03:40:53;11.10;90.10
65582;DHT22;52231;40.090;18.348;2024-03-17T03:43:20;11.10;90.10
65582;DHT22;52231;40.090;18.348;2024-03-17T03:45:48;11.00;90.10
65582;DHT22;52231;40.090;18.348;2024-03-17T03:48:15;11.00;90.20
65582;DHT22;52231;40.090;18.348;2024-03-17T03:50:42;11.00;90.20
65582;DHT22;52231;40.090;18.348;2024-03-17T03:53:10;11.00;90.20
65582;DHT22;52231;40.090;18.348;2024-03-17T03:55:38;10.90;90.20
65582;DHT22;52231;40.090;18.348;2024-03-17T03:58:05;10.80;90.20
65582;DHT22;52231;40.090;18.348;2024-03-17T04:00:32;10.90;90.20
65582;DHT22;52231;40.090;18.348;2024-03-17T04:02:59;10.80;90.30
65582;DHT22;52231;40.090;18.348;2024-03-17T04:05:28;10.80;90.30
65582;DHT22;52231;40.090;18.348;2024-03-17T04:07:55;10.70;90.30
65582;DHT22;52231;40.090;18.348;2024-03-17T04:10:23;10.70;90.40
65582;DHT22;52231;40.090;18.348;2024-03-17T04:12:51;10.50;90.40
65582;DHT22;52231;40.090;18.348;2024-03-17T04:15:19;10.50;90.50
65582;DHT22;52231;40.090;18.348;2024-03-17T04:17:46;10.40;90.50
65582;DHT22;52231;40.090;18.348;2024-03-17T04:20:14;10.30;90.60
65582;DHT22;52231;40.090;18.348;2024-03-17T04:22:42;10.30;90.70
65582;DHT22;52231;40.090;18.348;2024-03-17T04:25:12;10.20;90.80
65582;DHT22;52231;40.090;18.348;2024-03-17T04:27:40;10.30;90.90
65582;DHT22;52231;40.090;18.348;2024-03-17T04:30:08;10.20;91.00
65582;DHT22;52231;40.090;18.348;2024-03-17T04:32:36;10.20;91.00
65582;DHT22;52231;40.090;18.348;2024-03-17T04:35:03;10.10;91.10
65582;DHT22;52231;40.090;18.348;2024-03-17T04:37:31;10.00;91.10
65582;DHT22;52231;40.090;18.348;2024-03-17T04:40:06;10.10;91.20
65582;DHT22;52231;40.090;18.348;2024-03-17T04:42:36;10.00;91.20
65582;DHT22;52231;40.090;18.348;2024-03-17T04:45:07;10.00;91.40
65582;DHT22;52231;40.090;18.348;2024-03-17T04:47:36;10.20;91.50
65582;DHT22;52231;40.090;18.348;2024-03-17T04:50:04;10.20;91.50
65582;DHT22;52231;40.090;18.348;2024-03-17T04:52:31;10.20;91.60
65582;DHT22;52231;40.090;18.348;2024-03-17T04:54:58;10.20;91.60
65582;DHT22;52231;40.090;18.348;2024-03-17T04:57:25;10.30;91.70
65582;DHT22;52231;40.090;18.348;2024-03-17T04:59:53;10.30;91.80
65582;DHT22;52231;40.090;18.348;2024-03-17T05:02:20;10.30;91.80
65582;DHT22;52231;40.090;18.348;2024-03-17T05:04:50;10.50;91.90
65582;DHT22;52231;40.090;18.348;2024-03-17T05:07:17;10.50;92.00
65582;DHT22;52231;40.090;18.348;2024-03-17T05:09:44;10.40;92.00
65582;DHT22;52231;40.090;18.348;2024-03-17T05:12:12;10.40;92.00
65582;DHT22;52231;40.090;18.348;2024-03-17T05:14:39;10.50;92.10
65582;DHT22;52231;40.090;18.348;2024-03-17T05:17:06;10.40;92.10
65582;DHT22;52231;40.090;18.348;2024-03-17T05:19:33;10.40;92.10
65582;DHT22;52231;40.090;18.348;2024-03-17T05:22:00;10.60;92.20
65582;DHT22;52231;40.090;18.348;2024-03-17T05:24:28;10.50;92.10
65582;DHT22;52231;40.090;18.348;2024-03-17T05:26:55;10.60;92.20
65582;DHT22;52231;40.090;18.348;2024-03-17T05:29:41;10.60;92.20
65582;DHT22;52231;40.090;18.348;2024-03-17T05:32:08;10.60;92.20
65582;DHT22;52231;40.090;18.348;2024-03-17T05:34:37;10.70;92.20
65582;DHT22;52231;40.090;18.348;2024-03-17T05:37:04;10.80;92.30
65582;DHT22;52231;40.090;18.348;2024-03-17T05:39:32;10.90;92.30
65582;DHT22;52231;40.090;18.348;2024-03-17T05:41:59;10.90;92.30
65582;DHT22;52231;40.090;18.348;2024-03-17T05:44:26;11.10;92.30
65582;DHT22;52231;40.090;18.348;2024-03-17T05:46:56;11.10;92.30
65582;DHT22;52231;40.090;18.348;2024-03-17T05:49:24;11.30;92.30
65582;DHT22;52231;40.090;18.348;2024-03-17T05:51:51;11.30;92.30
65582;DHT22;52231;40.090;18.348;2024-03-17T05:54:19;11.50;92.40
65582;DHT22;52231;40.090;18.348;2024-03-17T05:56:46;11.70;92.40
65582;DHT22;52231;40.090;18.348;2024-03-17T05:59:13;11.80;92.40
65582;DHT22;52231;40.090;18.348;2024-03-17T06:01:40;11.90;92.30
65582;DHT22;52231;40.090;18.348;2024-03-17T06:04:08;12.00;92.30
65582;DHT22;52231;40.090;18.348;2024-03-17T06:06:36;12.20;92.20
65582;DHT22;52231;40.090;18.348;2024-03-17T06:09:03;12.40;92.30
65582;DHT22;52231;40.090;18.348;2024-03-17T06:11:31;12.70;92.20
65582;DHT22;52231;40.090;18.348;2024-03-17T06:14:01;12.90;92.10
65582;DHT22;52231;40.090;18.348;2024-03-17T06:16:31;13.10;92.00
65582;DHT22;52231;40.090;18.348;2024-03-17T06:18:58;13.30;91.80
65582;DHT22;52231;40.090;18.348;2024-03-17T06:21:25;13.40;91.50
65582;DHT22;52231;40.090;18.348;2024-03-17T06:23:52;13.60;91.20
65582;DHT22;52231;40.090;18.348;2024-03-17T06:26:19;13.70;90.80
65582;DHT22;52231;40.090;18.348;2024-03-17T06:28:47;14.00;90.50
65582;DHT22;52231;40.090;18.348;2024-03-17T06:31:14;14.20;90.10
65582;DHT22;52231;40.090;18.348;2024-03-17T06:33:42;14.40;89.30
65582;DHT22;52231;40.090;18.348;2024-03-17T06:36:10;14.60;88.20
65582;DHT22;52231;40.090;18.348;2024-03-17T06:38:38;15.10;87.50
65582;DHT22;52231;40.090;18.348;2024-03-17T06:41:06;15.70;86.10
65582;DHT22;52231;40.090;18.348;2024-03-17T06:43:33;16.30;84.60
65582;DHT22;52231;40.090;18.348;2024-03-17T06:46:01;17.00;83.60
65582;DHT22;52231;40.090;18.348;2024-03-17T06:48:29;17.50;79.90
65582;DHT22;52231;40.090;18.348;2024-03-17T06:50:56;17.80;78.50
65582;DHT22;52231;40.090;18.348;2024-03-17T06:53:24;18.30;77.10
65582;DHT22;52231;40.090;18.348;2024-03-17T06:56:11;18.80;75.00
65582;DHT22;52231;40.090;18.348;2024-03-17T06:58:38;19.20;72.40
65582;DHT22;52231;40.090;18.348;2024-03-17T07:01:05;19.70;71.70
65582;DHT22;52231;40.090;18.348;2024-03-17T07:03:32;20.20;69.20
65582;DHT22;52231;40.090;18.348;2024-03-17T07:06:00;20.50;67.00
65582;DHT22;52231;40.090;18.348;2024-03-17T07:08:30;20.50;65.20
65582;DHT22;52231;40.090;18.348;2024-03-17T07:11:07;20.00;63.80
65582;DHT22;52231;40.090;18.348;2024-03-17T07:13:38;19.60;64.10
65582;DHT22;52231;40.090;18.348;2024-03-17T07:16:09;19.40;64.90
65582;DHT22;52231;40.090;18.348;2024-03-17T07:18:36;19.10;65.00
65582;DHT22;52231;40.090;18.348;2024-03-17T07:21:04;19.20;66.40
65582;DHT22;52231;40.090;18.348;2024-03-17T07:23:32;19.30;66.30
65582;DHT22;52231;40.090;18.348;2024-03-17T07:26:00;19.10;65.60
65582;DHT22;52231;40.090;18.348;2024-03-17T07:28:28;18.80;67.10
65582;DHT22;52231;40.090;18.348;2024-03-17T07:30:56;18.80;68.30
65582;DHT22;52231;40.090;18.348;2024-03-17T07:33:24;19.10;68.40
65582;DHT22;52231;40.090;18.348;2024-03-17T07:35:57;19.50;66.10
65582;DHT22;52231;40.090;18.348;2024-03-17T07:38:29;20.00;65.20
65582;DHT22;52231;40.090;18.348;2024-03-17T07:40:59;20.30;63.60
65582;DHT22;52231;40.090;18.348;2024-03-17T07:43:28;20.10;63.90
65582;DHT22;52231;40.090;18.348;2024-03-17T07:46:08;19.80;64.00
65582;DHT22;52231;40.090;18.348;2024-03-17T07:48:43;20.00;64.60
65582;DHT22;52231;40.090;18.348;2024-03-17T07:51:14;19.90;64.00
65582;DHT22;52231;40.090;18.348;2024-03-17T07:53:45;19.80;64.50
65582;DHT22;52231;40.090;18.348;2024-03-17T07:56:13;20.10;63.60
65582;DHT22;52231;40.090;18.348;2024-03-17T07:58:42;20.00;63.60
65582;DHT22;52231;40.090;18.348;2024-03-17T08:01:13;20.00;63.40
65582;DHT22;52231;40.090;18.348;2024-03-17T08:03:43;20.10;64.30
65582;DHT22;52231;40.090;18.348;2024-03-17T08:06:11;19.80;65.10
65582;DHT22;52231;40.090;18.348;2024-03-17T08:08:38;19.20;65.50
65582;DHT22;52231;40.090;18.348;2024-03-17T08:11:05;18.50;67.20
65582;DHT22;52231;40.090;18.348;2024-03-17T08:13:33;18.10;68.80
65582;DHT22;52231;40.090;18.348;2024-03-17T08:16:06;17.60;69.80
65582;DHT22;52231;40.090;18.348;2024-03-17T08:18:33;17.30;70.90
65582;DHT22;52231;40.090;18.348;2024-03-17T08:21:04;17.00;71.90
65582;DHT22;52231;40.090;18.348;2024-03-17T08:23:33;16.90;72.30
65582;DHT22;52231;40.090;18.348;2024-03-17T08:26:02;16.60;72.80
65582;DHT22;52231;40.090;18.348;2024-03-17T08:28:30;16.40;73.30
65582;DHT22;52231;40.090;18.348;2024-03-17T08:30:58;16.30;74.10
65582;DHT22;52231;40.090;18.348;2024-03-17T08:33:26;16.20;75.00
65582;DHT22;52231;40.090;18.348;2024-03-17T08:35:58;16.10;76.50
65582;DHT22;52231;40.090;18.348;2024-03-17T08:38:27;15.80;78.00
65582;DHT22;52231;40.090;18.348;2024-03-17T08:40:55;15.70;79.60
65582;DHT22;52231;40.090;18.348;2024-03-17T08:43:22;15.50;80.90
65582;DHT22;52231;40.090;18.348;2024-03-17T08:45:57;15.30;81.50
65582;DHT22;52231;40.090;18.348;2024-03-17T08:48:30;15.20;81.20
65582;DHT22;52231;40.090;18.348;2024-03-17T08:50:58;15.00;81.50
65582;DHT22;52231;40.090;18.348;2024-03-17T08:53:26;15.10;81.10
65582;DHT22;52231;40.090;18.348;2024-03-17T08:55:54;14.80;80.70
65582;DHT22;52231;40.090;18.348;2024-03-17T08:58:21;14.90;80.90
65582;DHT22;52231;40.090;18.348;2024-03-17T09:00:49;15.00;80.80
65582;DHT22;52231;40.090;18.348;2024-03-17T09:03:16;14.90;80.90
65582;DHT22;52231;40.090;18.348;2024-03-17T09:05:45;15.00;80.90
65582;DHT22;52231;40.090;18.348;2024-03-17T09:08:16;15.20;80.70
65582;DHT22;52231;40.090;18.348;2024-03-17T09:10:44;15.40;80.20
65582;DHT22;52231;40.090;18.348;2024-03-17T09:13:17;15.70;79.50
65582;DHT22;52231;40.090;18.348;2024-03-17T09:15:55;15.90;78.30
65582;DHT22;52231;40.090;18.348;2024-03-17T09:18:47;16.30;76.30
65582;DHT22;52231;40.090;18.348;2024-03-17T09:21:15;16.90;75.20
65582;DHT22;52231;40.090;18.348;2024-03-17T09:23:45;17.30;73.60
65582;DHT22;52231;40.090;18.348;2024-03-17T09:26:14;17.60;71.50
65582;DHT22;52231;40.090;18.348;2024-03-17T09:28:43;17.90;70.40
65582;DHT22;52231;40.090;18.348;2024-03-17T09:31:11;18.10;67.60
65582;DHT22;52231;40.090;18.348;2024-03-17T09:33:38;18.20;65.40
65582;DHT22;52231;40.090;18.348;2024-03-17T09:36:07;18.10;64.90
65582;DHT22;52231;40.090;18.348;2024-03-17T09:38:36;18.00;65.40
65582;DHT22;52231;40.090;18.348;2024-03-17T09:41:03;18.60;66.30
65582;DHT22;52231;40.090;18.348;2024-03-17T09:43:33;19.40;64.30
65582;DHT22;52231;40.090;18.348;2024-03-17T09:46:05;19.80;61.20
65582;DHT22;52231;40.090;18.348;2024-03-17T09:48:32;20.20;60.70
65582;DHT22;52231;40.090;18.348;2024-03-17T09:51:01;20.60;58.10
65582;DHT22;52231;40.090;18.348;2024-03-17T09:53:33;20.30;55.70
65582;DHT22;52231;40.090;18.348;2024-03-17T09:56:15;19.90;58.20
65582;DHT22;52231;40.090;18.348;2024-03-17T09:59:03;20.10;58.90
65582;DHT22;52231;40.090;18.348;2024-03-17T10:01:32;20.40;58.10
65582;DHT22;52231;40.090;18.348;2024-03-17T10:03:59;20.90;58.40
65582;DHT22;52231;40.090;18.348;2024-03-17T10:06:31;21.30;56.40
65582;DHT22;52231;40.090;18.348;2024-03-17T10:09:01;21.20;56.10
65582;DHT22;52231;40.090;18.348;2024-03-17T10:11:36;21.30;56.80
65582;DHT22;52231;40.090;18.348;2024-03-17T10:14:08;21.10;55.70
65582;DHT22;52231;40.090;18.348;2024-03-17T10:16:36;21.20;57.40
65582;DHT22;52231;40.090;18.348;2024-03-17T10:19:15;21.30;57.00
65582;DHT22;52231;40.090;18.348;2024-03-17T10:21:46;20.90;57.30
65582;DHT22;52231;40.090;18.348;2024-03-17T10:24:24;20.50;58.10
65582;DHT22;52231;40.090;18.348;2024-03-17T10:26:52;20.10;58.60
65582;DHT22;52231;40.090;18.348;2024-03-17T10:32:02;19.70;62.30
65582;DHT22;52231;40.090;18.348;2024-03-17T10:34:31;20.30;60.80
65582;DHT22;52231;40.090;18.348;2024-03-17T10:37:15;20.60;58.40
65582;DHT22;52231;40.090;18.348;2024-03-17T10:39:44;20.50;58.80
65582;DHT22;52231;40.090;18.348;2024-03-17T10:42:12;20.80;57.80
65582;DHT22;52231;40.090;18.348;2024-03-17T10:44:41;20.80;56.30
65582;DHT22;52231;40.090;18.348;2024-03-17T10:47:26;21.10;57.20
65582;DHT22;52231;40.090;18.348;2024-03-17T10:49:54;21.80;55.30
65582;DHT22;52231;40.090;18.348;2024-03-17T10:52:23;21.80;54.40
65582;DHT22;52231;40.090;18.348;2024-03-17T10:54:55;21.40;54.30
65582;DHT22;52231;40.090;18.348;2024-03-17T11:00:04;20.70;56.10
65582;DHT22;52231;40.090;18.348;2024-03-17T11:02:32;21.30;56.20
65582;DHT22;52231;40.090;18.348;2024-03-17T11:05:04;21.40;55.80
65582;DHT22;52231;40.090;18.348;2024-03-17T11:07:32;21.30;55.60
65582;DHT22;52231;40.090;18.348;2024-03-17T11:10:00;21.80;56.60
65582;DHT22;52231;40.090;18.348;2024-03-17T11:12:44;22.20;54.30
65582;DHT22;52231;40.090;18.348;2024-03-17T11:15:34;22.10;53.60
65582;DHT22;52231;40.090;18.348;2024-03-17T11:20:38;20.70;56.40
65582;DHT22;52231;40.090;18.348;2024-03-17T11:23:06;20.30;57.40
65582;DHT22;52231;40.090;18.348;2024-03-17T11:25:40;20.70;57.80
65582;DHT22;52231;40.090;18.348;2024-03-17T11:28:08;21.20;56.70
65582;DHT22;52231;40.090;18.348;2024-03-17T11:47:00;20.20;59.30
65582;DHT22;52231;40.090;18.348;2024-03-17T11:49:38;20.40;59.60
65582;DHT22;52231;40.090;18.348;2024-03-17T11:52:10;20.60;56.30
65582;DHT22;52231;40.090;18.348;2024-03-17T11:54:43;20.60;57.00
65582;DHT22;52231;40.090;18.348;2024-03-17T11:59:45;20.60;57.10
65582;DHT22;52231;40.090;18.348;2024-03-17T12:04:45;19.30;60.50
65582;DHT22;52231;40.090;18.348;2024-03-17T12:07:14;18.80;60.90
65582;DHT22;52231;40.090;18.348;2024-03-17T12:09:42;19.00;62.20
65582;DHT22;52231;40.090;18.348;2024-03-17T12:12:17;19.30;61.20
65582;DHT22;52231;40.090;18.348;2024-03-17T12:14:45;19.70;60.20
65582;DHT22;52231;40.090;18.348;2024-03-17T12:17:15;20.30;59.00
65582;DHT22;52231;40.090;18.348;2024-03-17T12:19:44;20.70;58.50
65582;DHT22;52231;40.090;18.348;2024-03-17T12:22:22;20.60;56.50
65582;DHT22;52231;40.090;18.348;2024-03-17T12:24:55;20.40;57.50
65582;DHT22;52231;40.090;18.348;2024-03-17T12:27:24;20.30;57.90
65582;DHT22;52231;40.090;18.348;2024-03-17T12:29:52;20.30;58.20
65582;DHT22;52231;40.090;18.348;2024-03-17T12:32:24;20.20;58.80
65582;DHT22;52231;40.090;18.348;2024-03-17T12:34:53;20.10;58.30
65582;DHT22;52231;40.090;18.348;2024-03-17T12:37:25;20.00;58.90
65582;DHT22;52231;40.090;18.348;2024-03-17T12:39:58;20.10;57.10
65582;DHT22;52231;40.090;18.348;2024-03-17T12:42:29;20.20;57.00
65582;DHT22;52231;40.090;18.348;2024-03-17T12:44:57;20.30;58.40
65582;DHT22;52231;40.090;18.348;2024-03-17T12:47:27;20.30;58.20
65582;DHT22;52231;40.090;18.348;2024-03-17T12:49:58;20.30;56.90
65582;DHT22;52231;40.090;18.348;2024-03-17T12:52:26;20.30;57.10
65582;DHT22;52231;40.090;18.348;2024-03-17T12:57:48;20.60;57.80
65582;DHT22;52231;40.090;18.348;2024-03-17T13:00:35;20.90;57.50
65582;DHT22;52231;40.090;18.348;2024-03-17T13:03:06;21.20;56.30
65582;DHT22;52231;40.090;18.348;2024-03-17T13:05:35;21.10;57.60
65582;DHT22;52231;40.090;18.348;2024-03-17T13:08:02;20.90;57.90
65582;DHT22;52231;40.090;18.348;2024-03-17T13:10:30;20.80;58.10
65582;DHT22;52231;40.090;18.348;2024-03-17T13:13:05;20.70;56.90
65582;DHT22;52231;40.090;18.348;2024-03-17T13:15:35;20.30;58.10
65582;DHT22;52231;40.090;18.348;2024-03-17T13:18:05;20.00;58.70
65582;DHT22;52231;40.090;18.348;2024-03-17T13:20:32;19.80;59.00
65582;DHT22;52231;40.090;18.348;2024-03-17T13:22:59;19.90;58.90
65582;DHT22;52231;40.090;18.348;2024-03-17T13:25:30;20.00;58.30
65582;DHT22;52231;40.090;18.348;2024-03-17T13:28:04;20.20;57.60
65582;DHT22;52231;40.090;18.348;2024-03-17T13:30:33;20.30;58.30
65582;DHT22;52231;40.090;18.348;2024-03-17T13:33:04;20.30;58.60
65582;DHT22;52231;40.090;18.348;2024-03-17T13:35:39;20.30;57.80
65582;DHT22;52231;40.090;18.348;2024-03-17T13:38:08;20.20;57.80
65582;DHT22;52231;40.090;18.348;2024-03-17T13:40:36;20.30;58.90
65582;DHT22;52231;40.090;18.348;2024-03-17T13:43:07;20.40;58.00
65582;DHT22;52231;40.090;18.348;2024-03-17T13:45:40;20.10;58.20
65582;DHT22;52231;40.090;18.348;2024-03-17T13:48:08;20.00;58.30
65582;DHT22;52231;40.090;18.348;2024-03-17T13:50:39;19.90;56.30
65582;DHT22;52231;40.090;18.348;2024-03-17T13:53:08;20.00;56.50
65582;DHT22;52231;40.090;18.348;2024-03-17T13:55:36;20.10;55.80
65582;DHT22;52231;40.090;18.348;2024-03-17T13:58:03;20.00;56.90
65582;DHT22;52231;40.090;18.348;2024-03-17T14:00:32;20.00;58.10
65582;DHT22;52231;40.090;18.348;2024-03-17T14:03:03;19.90;58.50
65582;DHT22;52231;40.090;18.348;2024-03-17T14:05:30;19.60;58.30
65582;DHT22;52231;40.090;18.348;2024-03-17T14:07:59;19.40;57.80
65582;DHT22;52231;40.090;18.348;2024-03-17T14:10:27;19.30;57.40
65582;DHT22;52231;40.090;18.348;2024-03-17T14:12:54;19.30;59.60
65582;DHT22;52231;40.090;18.348;2024-03-17T14:15:21;19.30;60.50
65582;DHT22;52231;40.090;18.348;2024-03-17T14:17:48;19.20;60.60
65582;DHT22;52231;40.090;18.348;2024-03-17T14:20:17;19.10;58.90
65582;DHT22;52231;40.090;18.348;2024-03-17T14:22:47;18.90;60.80
65582;DHT22;52231;40.090;18.348;2024-03-17T14:25:16;19.00;61.30
65582;DHT22;52231;40.090;18.348;2024-03-17T14:27:48;18.80;61.30
65582;DHT22;52231;40.090;18.348;2024-03-17T14:30:18;18.70;62.00
65582;DHT22;52231;40.090;18.348;2024-03-17T14:32:49;18.60;61.80
65582;DHT22;52231;40.090;18.348;2024-03-17T14:35:17;18.50;62.20
65582;DHT22;52231;40.090;18.348;2024-03-17T14:37:45;18.40;61.60
65582;DHT22;52231;40.090;18.348;2024-03-17T14:40:16;18.30;62.60
65582;DHT22;52231;40.090;18.348;2024-03-17T14:42:51;18.30;63.40
65582;DHT22;52231;40.090;18.348;2024-03-17T14:45:19;18.10;63.00
65582;DHT22;52231;40.090;18.348;2024-03-17T14:47:46;17.90;63.30
65582;DHT22;52231;40.090;18.348;2024-03-17T14:50:13;17.90;64.40
65582;DHT22;52231;40.090;18.348;2024-03-17T14:52:43;17.80;64.20
65582;DHT22;52231;40.090;18.348;2024-03-17T14:55:10;17.80;63.70
65582;DHT22;52231;40.090;18.348;2024-03-17T14:57:38;17.80;64.20
65582;DHT22;52231;40.090;18.348;2024-03-17T15:00:07;17.80;64.60
65582;DHT22;52231;40.090;18.348;2024-03-17T15:02:46;17.90;64.70
65582;DHT22;52231;40.090;18.348;2024-03-17T15:05:14;17.80;64.70
65582;DHT22;52231;40.090;18.348;2024-03-17T15:07:42;18.00;64.20
65582;DHT22;52231;40.090;18.348;2024-03-17T15:10:09;18.20;64.40
65582;DHT22;52231;40.090;18.348;2024-03-17T15:12:37;18.30;64.30
65582;DHT22;52231;40.090;18.348;2024-03-17T15:15:04;18.20;64.50
65582;DHT22;52231;40.090;18.348;2024-03-17T15:17:35;18.10;64.90
65582;DHT22;52231;40.090;18.348;2024-03-17T15:20:04;17.90;65.60
65582;DHT22;52231;40.090;18.348;2024-03-17T15:22:46;17.80;66.20
65582;DHT22;52231;40.090;18.348;2024-03-17T15:25:16;17.60;67.10
65582;DHT22;52231;40.090;18.348;2024-03-17T15:27:46;17.40;68.30
65582;DHT22;52231;40.090;18.348;2024-03-17T15:30:17;17.30;69.20
65582;DHT22;52231;40.090;18.348;2024-03-17T15:32:49;17.40;69.40
65582;DHT22;52231;40.090;18.348;2024-03-17T15:35:16;17.40;69.80
65582;DHT22;52231;40.090;18.348;2024-03-17T15:37:43;17.50;69.40
65582;DHT22;52231;40.090;18.348;2024-03-17T15:40:13;17.40;69.50
65582;DHT22;52231;40.090;18.348;2024-03-17T15:42:48;17.40;69.90
65582;DHT22;52231;40.090;18.348;2024-03-17T15:45:16;17.40;70.00
65582;DHT22;52231;40.090;18.348;2024-03-17T15:47:47;17.30;70.30
65582;DHT22;52231;40.090;18.348;2024-03-17T15:50:14;17.00;70.80
65582;DHT22;52231;40.090;18.348;2024-03-17T15:52:42;16.80;71.50
65582;DHT22;52231;40.090;18.348;2024-03-17T15:55:11;16.70;71.70
65582;DHT22;52231;40.090;18.348;2024-03-17T15:57:38;16.50;72.10
65582;DHT22;52231;40.090;18.348;2024-03-17T16:00:06;16.40;72.70
65582;DHT22;52231;40.090;18.348;2024-03-17T16:02:41;16.30;73.40